Time;durP1;ratioP1;P1;durP2;ratioP2;P2;SDS_P1;SDS_P2;PMS_P1;PMS_P2;Temp;Humidity;BMP_temperature;BMP_pressure;BME280_temperature;BME280_humidity;BME280_pressure;Samples;Min_cycle;Max_cycle;Signal;HPM_P1;HPM_P2
2022/01/29 00:00:22;;;;;;;20.00;5.55;;;1.30;99.90;;;;;;4987969;28;20494;-60
2022/01/29 00:02:48;;;;;;;14.25;6.15;;;1.30;99.90;;;;;;4991524;28;20122;-60
2022/01/29 00:05:13;;;;;;;15.63;5.45;;;1.40;99.90;;;;;;4988051;28;20547;-60
2022/01/29 00:07:41;;;;;;;22.63;5.25;;;1.40;99.90;;;;;;4986276;28;20038;-60
2022/01/29 00:10:11;;;;;;;17.23;6.10;;;1.40;99.90;;;;;;4989355;28;20055;-60
2022/01/29 00:12:37;;;;;;;21.73;7.20;;;1.50;99.90;;;;;;4991395;28;20030;-60
2022/01/29 00:15:04;;;;;;;18.65;5.15;;;1.50;99.90;;;;;;4988260;28;20436;-60
2022/01/29 00:17:29;;;;;;;8.77;5.20;;;1.50;99.90;;;;;;4987919;28;20612;-60
2022/01/29 00:19:55;;;;;;;24.10;7.15;;;1.50;99.90;;;;;;4982718;28;20041;-60
2022/01/29 00:22:21;;;;;;;20.75;5.88;;;1.50;99.90;;;;;;4989157;28;20038;-60
2022/01/29 00:24:47;;;;;;;20.42;4.63;;;1.60;99.90;;;;;;4990471;28;20441;-60
2022/01/29 00:27:13;;;;;;;14.02;5.38;;;1.60;99.90;;;;;;4988249;28;20022;-60
2022/01/29 00:29:41;;;;;;;16.45;6.05;;;1.60;99.90;;;;;;4988878;28;20031;-60
2022/01/29 00:32:11;;;;;;;16.55;6.60;;;1.70;99.90;;;;;;4983535;28;20030;-60
2022/01/29 00:34:38;;;;;;;18.27;6.90;;;1.70;99.90;;;;;;4985926;28;20117;-61
2022/01/29 00:37:04;;;;;;;16.27;7.82;;;1.80;99.90;;;;;;4988737;28;20026;-61
2022/01/29 00:39:30;;;;;;;12.30;8.85;;;1.80;99.90;;;;;;4984737;28;20030;-60
2022/01/29 00:41:55;;;;;;;20.75;9.77;;;1.90;99.90;;;;;;4986419;28;20033;-60
2022/01/29 00:44:21;;;;;;;18.42;9.45;;;1.90;99.90;;;;;;4986385;28;20035;-60
2022/01/29 00:46:47;;;;;;;18.48;11.90;;;1.90;99.90;;;;;;4988893;28;20018;-60
2022/01/29 00:49:13;;;;;;;22.85;10.88;;;2.00;99.90;;;;;;4988173;28;20084;-60
2022/01/29 00:51:39;;;;;;;17.17;11.02;;;2.00;99.90;;;;;;4987011;28;20555;-61
2022/01/29 00:54:05;;;;;;;21.15;11.88;;;2.10;99.90;;;;;;4991082;28;20026;-60
2022/01/29 00:56:31;;;;;;;19.40;13.45;;;2.20;99.90;;;;;;4988522;28;20029;-60
2022/01/29 00:58:57;;;;;;;22.13;13.52;;;2.20;99.90;;;;;;4986288;28;20031;-61
2022/01/29 01:01:23;;;;;;;22.23;12.93;;;2.30;99.90;;;;;;4989178;28;20401;-61
2022/01/29 01:03:48;;;;;;;21.02;13.10;;;2.30;99.90;;;;;;4987237;28;20030;-61
2022/01/29 01:06:14;;;;;;;25.92;13.07;;;2.30;99.90;;;;;;4986172;28;20483;-60
2022/01/29 01:08:40;;;;;;;23.73;13.98;;;2.40;99.90;;;;;;4988450;28;20523;-60
2022/01/29 01:11:05;;;;;;;23.10;13.98;;;2.40;99.90;;;;;;4985248;28;20030;-61
2022/01/29 01:13:32;;;;;;;26.23;14.00;;;2.50;99.90;;;;;;4983783;28;20485;-61
2022/01/29 01:15:58;;;;;;;22.17;13.38;;;2.60;99.90;;;;;;4988286;28;20137;-61
2022/01/29 01:18:24;;;;;;;24.58;13.20;;;2.50;99.90;;;;;;4988981;28;20112;-60
2022/01/29 01:20:49;;;;;;;25.50;15.38;;;2.50;99.90;;;;;;4987327;28;20034;-60
2022/01/29 01:23:15;;;;;;;22.27;13.95;;;2.50;99.90;;;;;;4988104;28;20037;-60
2022/01/29 01:25:41;;;;;;;22.08;14.10;;;2.50;99.90;;;;;;4985550;28;20061;-60
2022/01/29 01:28:07;;;;;;;22.10;14.43;;;2.60;99.90;;;;;;4988474;28;20101;-60
2022/01/29 01:30:33;;;;;;;20.55;13.25;;;2.60;99.90;;;;;;4987134;28;20018;-60
2022/01/29 01:33:01;;;;;;;21.10;14.43;;;2.60;99.90;;;;;;4986476;28;20018;-61
2022/01/29 01:35:32;;;;;;;21.27;15.20;;;2.60;99.90;;;;;;4986780;28;20607;-60
2022/01/29 01:38:09;;;;;;;26.88;17.02;;;2.70;99.90;;;;;;4986745;28;20121;-60
2022/01/29 01:40:35;;;;;;;32.85;15.20;;;2.70;99.90;;;;;;4985998;28;20034;-60
2022/01/29 01:43:01;;;;;;;24.27;15.77;;;2.70;99.90;;;;;;4987233;28;20026;-61
2022/01/29 01:45:28;;;;;;;30.00;15.57;;;2.70;99.90;;;;;;4985094;28;20021;-61
2022/01/29 01:47:54;;;;;;;29.40;16.30;;;2.80;99.90;;;;;;4989237;28;20741;-60
2022/01/29 01:50:21;;;;;;;24.88;14.52;;;2.80;99.90;;;;;;4986779;28;20034;-61
2022/01/29 01:52:48;;;;;;;30.33;16.00;;;2.80;99.90;;;;;;4985096;28;20122;-61
2022/01/29 01:55:14;;;;;;;30.60;15.80;;;2.90;99.90;;;;;;4988311;28;20023;-60
2022/01/29 01:57:40;;;;;;;35.60;17.45;;;2.90;99.90;;;;;;4987528;28;20056;-60
2022/01/29 02:00:07;;;;;;;29.23;16.77;;;2.90;99.90;;;;;;4988527;28;20122;-61
2022/01/29 02:02:32;;;;;;;30.20;16.20;;;2.90;99.90;;;;;;4986915;28;20039;-60
2022/01/29 02:04:58;;;;;;;34.70;16.80;;;2.80;99.90;;;;;;4983928;28;20038;-61
2022/01/29 02:07:24;;;;;;;29.45;15.93;;;2.90;99.90;;;;;;4988039;28;20065;-61
2022/01/29 02:09:49;;;;;;;31.52;17.60;;;2.90;99.90;;;;;;4986497;28;20481;-60
2022/01/29 02:12:15;;;;;;;25.52;16.65;;;2.90;99.90;;;;;;4985929;28;20058;-60
2022/01/29 02:14:41;;;;;;;34.50;18.08;;;3.00;99.90;;;;;;4985588;28;20170;-61
2022/01/29 02:17:09;;;;;;;34.55;19.65;;;3.00;99.90;;;;;;4981273;28;20034;-61
2022/01/29 02:19:34;;;;;;;38.92;21.20;;;3.00;99.90;;;;;;4985721;28;20042;-60
2022/01/29 02:22:00;;;;;;;40.58;19.65;;;3.00;99.90;;;;;;4987070;28;20038;-61
2022/01/29 02:24:26;;;;;;;32.80;19.52;;;3.10;99.90;;;;;;4986393;28;20073;-61
2022/01/29 02:26:53;;;;;;;35.28;19.45;;;3.10;99.90;;;;;;4984422;28;20390;-61
2022/01/29 02:29:19;;;;;;;39.00;18.08;;;3.10;99.90;;;;;;4982248;28;20507;-60
2022/01/29 02:31:47;;;;;;;37.45;20.02;;;3.10;99.90;;;;;;4987001;28;20497;-60
2022/01/29 02:34:13;;;;;;;35.90;18.23;;;3.10;99.90;;;;;;4988310;28;20117;-60
2022/01/29 02:36:41;;;;;;;35.00;18.25;;;3.10;99.90;;;;;;4987317;28;20113;-60
2022/01/29 02:39:07;;;;;;;38.80;18.38;;;3.10;99.90;;;;;;4990509;28;20392;-60
2022/01/29 02:41:34;;;;;;;35.33;17.60;;;3.10;99.90;;;;;;4983024;28;20753;-61
2022/01/29 02:44:03;;;;;;;26.83;16.45;;;3.10;99.90;;;;;;4995959;28;20027;-61
2022/01/29 02:46:30;;;;;;;33.95;17.95;;;3.10;99.90;;;;;;4986381;28;20042;-60
2022/01/29 02:48:58;;;;;;;32.20;17.35;;;3.20;99.90;;;;;;4985405;28;20393;-60
2022/01/29 02:51:24;;;;;;;25.63;16.13;;;3.20;99.90;;;;;;4984987;28;20173;-60
2022/01/29 02:53:50;;;;;;;30.23;15.55;;;3.10;99.90;;;;;;4985980;28;20417;-61
2022/01/29 02:56:16;;;;;;;21.90;14.35;;;3.10;99.90;;;;;;4985747;28;20023;-61
2022/01/29 02:58:42;;;;;;;25.48;14.15;;;3.20;99.90;;;;;;4986793;28;20034;-60
2022/01/29 03:01:09;;;;;;;30.70;15.38;;;3.20;99.90;;;;;;4985942;28;20018;-61
2022/01/29 03:03:34;;;;;;;26.95;15.40;;;3.20;99.90;;;;;;4985119;28;20026;-60
2022/01/29 03:06:03;;;;;;;24.85;14.60;;;3.20;99.90;;;;;;4989405;28;20366;-61
2022/01/29 03:08:29;;;;;;;25.02;14.82;;;3.30;99.90;;;;;;4989508;28;20046;-61
2022/01/29 03:10:54;;;;;;;27.00;14.07;;;3.20;99.90;;;;;;4988542;28;20292;-60
2022/01/29 03:13:20;;;;;;;24.38;13.35;;;3.20;99.90;;;;;;4990529;28;20038;-61
2022/01/29 03:15:46;;;;;;;20.10;13.63;;;3.30;99.90;;;;;;4986385;28;20493;-61
2022/01/29 03:18:11;;;;;;;21.50;13.32;;;3.30;99.90;;;;;;4991849;28;20041;-61
2022/01/29 03:20:37;;;;;;;21.70;14.00;;;3.30;99.90;;;;;;4985986;28;20101;-61
2022/01/29 03:23:03;;;;;;;25.63;14.77;;;3.30;99.90;;;;;;4980218;28;20026;-60
2022/01/29 03:25:28;;;;;;;20.88;14.57;;;3.30;99.90;;;;;;5006439;28;20068;-60
2022/01/29 03:27:54;;;;;;;25.15;17.05;;;3.30;99.90;;;;;;4990133;28;20034;-61
2022/01/29 03:30:20;;;;;;;19.90;13.93;;;3.40;99.90;;;;;;4990894;28;20027;-60
2022/01/29 03:32:45;;;;;;;21.48;14.05;;;3.40;99.90;;;;;;4989331;28;20031;-61
2022/01/29 03:35:12;;;;;;;25.15;14.77;;;3.40;99.90;;;;;;4987067;28;20058;-60
2022/01/29 03:37:38;;;;;;;18.95;14.15;;;3.50;99.90;;;;;;4986096;28;21227;-60
2022/01/29 03:40:06;;;;;;;22.15;14.32;;;3.40;99.90;;;;;;4988719;28;20030;-61
2022/01/29 03:42:37;;;;;;;22.58;14.25;;;3.40;99.90;;;;;;4989551;28;20023;-60
2022/01/29 03:45:06;;;;;;;26.38;13.63;;;3.40;99.90;;;;;;4988800;28;20057;-61
2022/01/29 03:47:32;;;;;;;25.95;16.30;;;3.50;99.90;;;;;;4986784;28;20058;-60
2022/01/29 03:49:57;;;;;;;22.95;15.15;;;3.40;99.90;;;;;;4986973;28;20069;-60
2022/01/29 03:52:23;;;;;;;26.17;16.35;;;3.40;99.90;;;;;;4986910;28;20397;-61
2022/01/29 03:54:49;;;;;;;27.02;16.30;;;3.40;99.90;;;;;;4985638;28;20030;-60
2022/01/29 03:57:14;;;;;;;31.25;15.70;;;3.40;99.90;;;;;;4990466;28;20022;-61
2022/01/29 03:59:40;;;;;;;25.17;15.93;;;3.40;99.90;;;;;;4988039;28;20065;-61
2022/01/29 04:02:06;;;;;;;31.23;16.88;;;3.40;99.90;;;;;;4988881;28;20031;-60
2022/01/29 04:04:31;;;;;;;27.00;17.30;;;3.40;99.90;;;;;;4986363;28;20506;-60
2022/01/29 04:07:04;;;;;;;26.05;16.20;;;3.40;99.90;;;;;;4986674;28;20440;-61
2022/01/29 04:09:30;;;;;;;29.85;16.63;;;3.40;99.90;;;;;;4987496;28;20122;-61
2022/01/29 04:11:55;;;;;;;27.70;15.88;;;3.40;99.90;;;;;;4988004;28;20097;-60
2022/01/29 04:14:21;;;;;;;24.50;15.25;;;3.40;99.90;;;;;;4987366;28;20034;-61
2022/01/29 04:16:47;;;;;;;25.92;15.43;;;3.40;99.90;;;;;;4987604;28;20043;-61
2022/01/29 04:19:13;;;;;;;26.35;15.63;;;3.40;99.90;;;;;;4987943;28;20069;-61
2022/01/29 04:21:41;;;;;;;24.58;16.75;;;3.40;99.90;;;;;;4990331;28;20037;-60
2022/01/29 04:24:07;;;;;;;20.73;14.88;;;3.40;99.90;;;;;;4988509;28;20034;-61
2022/01/29 04:26:35;;;;;;;27.75;15.88;;;3.40;99.90;;;;;;4986638;28;20493;-61
2022/01/29 04:29:03;;;;;;;21.50;13.95;;;3.40;99.90;;;;;;4988676;28;20038;-60
2022/01/29 04:31:37;;;;;;;21.38;13.93;;;3.40;99.90;;;;;;4992490;28;20034;-61
2022/01/29 04:34:03;;;;;;;18.70;13.02;;;3.40;99.90;;;;;;4991386;28;20037;-61
2022/01/29 04:36:29;;;;;;;25.70;14.68;;;3.40;99.90;;;;;;4986373;28;20030;-61
2022/01/29 04:38:54;;;;;;;21.65;13.68;;;3.40;99.90;;;;;;4990015;28;20027;-60
2022/01/29 04:41:21;;;;;;;20.33;13.95;;;3.30;99.90;;;;;;4984336;28;20477;-61
2022/01/29 04:43:47;;;;;;;21.77;14.10;;;3.30;99.90;;;;;;4986694;28;20062;-60
2022/01/29 04:46:13;;;;;;;19.85;14.15;;;3.30;99.90;;;;;;4988729;28;20027;-60
2022/01/29 04:48:39;;;;;;;18.60;13.38;;;3.30;99.90;;;;;;4985345;28;20025;-60
2022/01/29 04:51:04;;;;;;;23.55;14.80;;;3.40;99.90;;;;;;4982432;28;20019;-61
2022/01/29 04:53:30;;;;;;;21.48;14.02;;;3.30;99.90;;;;;;4986199;28;20026;-60
2022/01/29 04:55:56;;;;;;;19.17;13.27;;;3.30;99.90;;;;;;4990210;28;20486;-61
2022/01/29 04:58:22;;;;;;;19.65;13.77;;;3.30;99.90;;;;;;4986706;28;20520;-61
2022/01/29 05:00:47;;;;;;;22.83;13.48;;;3.40;99.90;;;;;;4986810;28;20023;-61
2022/01/29 05:03:16;;;;;;;20.17;12.88;;;3.40;99.90;;;;;;4987283;28;20033;-61
2022/01/29 05:05:42;;;;;;;17.40;11.77;;;3.40;99.90;;;;;;4984636;28;20434;-60
2022/01/29 05:08:08;;;;;;;23.13;13.05;;;3.40;99.90;;;;;;4988102;28;20031;-61
2022/01/29 05:10:35;;;;;;;15.55;12.07;;;3.40;99.90;;;;;;4988458;28;20505;-61
2022/01/29 05:13:07;;;;;;;20.73;13.32;;;3.40;99.90;;;;;;4988396;28;20124;-61
2022/01/29 05:15:44;;;;;;;22.52;12.45;;;3.40;99.90;;;;;;4989400;28;20101;-60
2022/01/29 05:29:09;;;;;;;15.77;11.77;;;3.40;99.90;;;;;;4983972;28;20092;-61
2022/01/29 05:31:35;;;;;;;17.95;11.55;;;3.40;99.90;;;;;;4985179;28;20034;-61
2022/01/29 05:34:02;;;;;;;19.42;12.00;;;3.40;99.90;;;;;;4985447;28;20034;-60
2022/01/29 05:36:27;;;;;;;22.58;13.80;;;3.40;99.90;;;;;;4986773;28;20054;-61
2022/01/29 05:38:53;;;;;;;16.88;12.43;;;3.40;99.90;;;;;;4986101;28;20491;-60
2022/01/29 05:41:19;;;;;;;16.83;12.32;;;3.40;99.90;;;;;;4985788;28;20365;-61
2022/01/29 05:43:45;;;;;;;22.15;13.98;;;3.40;99.90;;;;;;4986528;28;20054;-61
2022/01/29 05:46:11;;;;;;;19.63;12.52;;;3.40;99.90;;;;;;4986894;28;20065;-60
2022/01/29 05:48:38;;;;;;;24.90;13.73;;;3.40;99.90;;;;;;4986998;28;20531;-60
2022/01/29 05:51:04;;;;;;;22.23;13.88;;;3.40;99.90;;;;;;4988014;28;20022;-60
2022/01/29 05:53:29;;;;;;;17.05;11.40;;;3.40;99.90;;;;;;4986068;28;20485;-60
2022/01/29 05:55:55;;;;;;;20.60;12.23;;;3.40;99.90;;;;;;4981717;28;20065;-61
2022/01/29 05:58:21;;;;;;;19.58;12.15;;;3.40;99.90;;;;;;4986138;28;20109;-61
2022/01/29 06:00:47;;;;;;;18.05;11.65;;;3.40;99.90;;;;;;4988351;28;20484;-61
2022/01/29 06:03:12;;;;;;;17.80;11.27;;;3.40;99.90;;;;;;4987430;28;20068;-61
2022/01/29 06:05:38;;;;;;;19.80;12.88;;;3.40;99.90;;;;;;4987233;28;20408;-61
2022/01/29 06:08:05;;;;;;;19.50;12.32;;;3.40;99.90;;;;;;4986440;28;20485;-61
2022/01/29 06:10:31;;;;;;;18.00;11.30;;;3.40;99.90;;;;;;4986365;28;20076;-61
2022/01/29 06:13:08;;;;;;;18.25;12.23;;;3.40;99.90;;;;;;4985841;28;20031;-61
2022/01/29 06:15:39;;;;;;;18.35;12.50;;;3.40;99.90;;;;;;4987013;28;20042;-61
2022/01/29 06:18:05;;;;;;;23.00;12.35;;;3.40;99.90;;;;;;4986060;28;20038;-61
2022/01/29 06:20:31;;;;;;;20.40;13.00;;;3.40;99.90;;;;;;4985531;28;20042;-61
2022/01/29 06:22:56;;;;;;;28.38;14.57;;;3.40;99.90;;;;;;4987728;28;20374;-60
2022/01/29 06:25:22;;;;;;;23.20;11.98;;;3.40;99.90;;;;;;4985499;28;20045;-61
2022/01/29 06:27:48;;;;;;;20.95;12.63;;;3.40;99.90;;;;;;4981503;28;20031;-61
2022/01/29 06:30:14;;;;;;;16.70;13.13;;;3.40;99.90;;;;;;4984255;28;20023;-60
2022/01/29 06:32:41;;;;;;;19.98;13.23;;;3.40;99.90;;;;;;4988829;28;20027;-60
2022/01/29 06:35:07;;;;;;;18.08;12.95;;;3.40;99.90;;;;;;4983175;28;20039;-60
2022/01/29 06:37:32;;;;;;;21.13;12.80;;;3.40;99.90;;;;;;4984560;28;20038;-61
2022/01/29 06:39:58;;;;;;;24.35;13.75;;;3.40;99.90;;;;;;4983243;28;20034;-61
2022/01/29 06:42:24;;;;;;;17.92;12.57;;;3.40;99.90;;;;;;4987750;28;20062;-61
2022/01/29 06:44:50;;;;;;;18.23;12.57;;;3.40;99.90;;;;;;4990218;28;20081;-61
2022/01/29 06:47:15;;;;;;;20.17;12.23;;;3.40;99.90;;;;;;4988893;28;20030;-60
2022/01/29 06:49:41;;;;;;;21.45;13.25;;;3.40;99.90;;;;;;4985495;28;20040;-60
2022/01/29 06:52:07;;;;;;;21.13;13.60;;;3.40;99.90;;;;;;4985818;28;20488;-61
2022/01/29 06:54:32;;;;;;;18.00;12.55;;;3.30;99.90;;;;;;4991500;28;20030;-61
2022/01/29 06:56:58;;;;;;;22.42;14.35;;;3.30;99.90;;;;;;4989900;28;20018;-61
2022/01/29 06:59:24;;;;;;;17.40;13.00;;;3.30;99.90;;;;;;4986844;28;20042;-60
2022/01/29 07:01:49;;;;;;;20.35;13.18;;;3.40;99.90;;;;;;4986179;28;20088;-61
2022/01/29 07:04:15;;;;;;;20.70;13.82;;;3.40;99.90;;;;;;4991084;28;20038;-61
2022/01/29 07:06:40;;;;;;;19.40;13.13;;;3.40;99.90;;;;;;4989859;28;20065;-60
2022/01/29 07:09:06;;;;;;;26.10;13.25;;;3.40;99.90;;;;;;4989187;28;20030;-60
2022/01/29 07:11:32;;;;;;;21.73;12.85;;;3.40;99.90;;;;;;4990086;28;20394;-61
2022/01/29 07:14:02;;;;;;;20.27;13.77;;;3.40;99.90;;;;;;4984142;28;20027;-61
2022/01/29 07:16:32;;;;;;;24.60;14.37;;;3.40;99.90;;;;;;4992101;28;20066;-61
2022/01/29 07:18:58;;;;;;;20.63;14.10;;;3.40;99.90;;;;;;4988288;28;20285;-61
2022/01/29 07:21:24;;;;;;;28.67;14.60;;;3.40;99.90;;;;;;4988098;28;20026;-61
2022/01/29 07:23:49;;;;;;;22.90;14.77;;;3.40;99.90;;;;;;4988980;28;20046;-61
2022/01/29 07:26:15;;;;;;;29.00;15.23;;;3.40;99.90;;;;;;4987381;28;20035;-60
2022/01/29 07:28:41;;;;;;;29.45;17.10;;;3.40;99.90;;;;;;4988451;28;20504;-61
2022/01/29 07:31:06;;;;;;;27.77;16.02;;;3.40;99.90;;;;;;4988560;28;20708;-63
2022/01/29 07:33:33;;;;;;;24.80;14.90;;;3.40;99.90;;;;;;4983485;28;20498;-61
2022/01/29 07:35:59;;;;;;;22.48;14.13;;;3.40;99.90;;;;;;4990339;28;20370;-60
2022/01/29 07:38:24;;;;;;;19.70;13.63;;;3.40;99.90;;;;;;4987547;28;20041;-61
2022/01/29 07:40:50;;;;;;;21.85;14.23;;;3.40;99.90;;;;;;4984884;28;20019;-60
2022/01/29 07:43:16;;;;;;;30.75;14.93;;;3.50;99.90;;;;;;4987882;28;20026;-60
2022/01/29 07:45:42;;;;;;;27.50;16.05;;;3.50;99.90;;;;;;4984203;28;20030;-61
2022/01/29 07:48:07;;;;;;;26.55;14.60;;;3.40;99.90;;;;;;4989798;28;20081;-60
2022/01/29 07:50:33;;;;;;;22.30;13.27;;;3.40;99.90;;;;;;4987901;28;20106;-60
2022/01/29 07:53:01;;;;;;;21.35;14.65;;;3.40;99.90;;;;;;4987884;28;20031;-60
2022/01/29 07:55:30;;;;;;;22.00;12.65;;;3.40;99.90;;;;;;4985827;28;20100;-62
2022/01/29 07:57:56;;;;;;;34.97;14.68;;;3.40;99.90;;;;;;4989250;28;20019;-61
2022/01/29 08:00:22;;;;;;;25.90;14.85;;;3.50;99.90;;;;;;4989060;28;20022;-60
2022/01/29 08:02:48;;;;;;;23.20;14.43;;;3.40;99.90;;;;;;4987282;28;20366;-61
2022/01/29 08:05:13;;;;;;;24.60;14.30;;;3.40;99.90;;;;;;4985301;28;20019;-61
2022/01/29 08:07:39;;;;;;;22.75;14.18;;;3.40;99.90;;;;;;4988785;28;20034;-61
2022/01/29 08:10:06;;;;;;;26.52;15.30;;;3.40;99.90;;;;;;4989717;28;20031;-60
2022/01/29 08:12:32;;;;;;;26.90;14.98;;;3.50;99.90;;;;;;4984477;28;20053;-60
2022/01/29 08:14:57;;;;;;;23.27;14.75;;;3.40;99.90;;;;;;4992067;28;20377;-60
2022/01/29 08:17:23;;;;;;;24.25;13.93;;;3.50;99.90;;;;;;4987886;28;20030;-60
2022/01/29 08:19:49;;;;;;;24.45;14.40;;;3.50;99.90;;;;;;4986861;28;20588;-61
2022/01/29 08:22:16;;;;;;;24.45;13.77;;;3.50;99.90;;;;;;4989666;28;20054;-60
2022/01/29 08:24:42;;;;;;;24.38;14.30;;;3.50;99.90;;;;;;4985836;28;20027;-61
2022/01/29 08:27:08;;;;;;;26.25;15.65;;;3.50;99.90;;;;;;4986957;28;20119;-61
2022/01/29 08:29:33;;;;;;;23.35;14.38;;;3.50;99.90;;;;;;4988098;28;20027;-61
2022/01/29 08:31:59;;;;;;;27.67;16.27;;;3.50;99.90;;;;;;4989063;28;20038;-61
2022/01/29 08:34:26;;;;;;;19.98;13.40;;;3.50;99.90;;;;;;4987060;28;20030;-60
2022/01/29 08:36:51;;;;;;;25.23;15.45;;;3.50;99.90;;;;;;4988526;28;20393;-63
2022/01/29 08:39:17;;;;;;;18.85;14.02;;;3.60;99.90;;;;;;4989153;28;20121;-60
2022/01/29 08:41:43;;;;;;;24.73;15.07;;;3.60;99.90;;;;;;4989257;28;20046;-60
2022/01/29 08:44:08;;;;;;;21.75;14.52;;;3.60;99.90;;;;;;4985294;28;20035;-60
2022/01/29 08:46:34;;;;;;;23.25;13.60;;;3.60;99.90;;;;;;4984792;28;20543;-61
2022/01/29 08:49:00;;;;;;;19.60;12.63;;;3.60;99.90;;;;;;4986332;28;20536;-61
2022/01/29 08:51:25;;;;;;;24.48;13.65;;;3.70;99.90;;;;;;4987510;28;20030;-65
2022/01/29 08:53:51;;;;;;;23.52;13.95;;;3.60;99.90;;;;;;4990267;28;20477;-65
2022/01/29 08:56:17;;;;;;;23.00;13.32;;;3.60;99.90;;;;;;4988992;28;20077;-68
2022/01/29 08:58:43;;;;;;;19.17;12.85;;;3.70;99.90;;;;;;4983361;28;20038;-65
2022/01/29 09:01:09;;;;;;;28.40;14.55;;;3.70;99.90;;;;;;4985664;28;20033;-64
2022/01/29 09:03:35;;;;;;;18.35;12.38;;;3.70;99.90;;;;;;4987580;28;20022;-67
2022/01/29 09:06:02;;;;;;;20.67;11.93;;;3.70;99.90;;;;;;4988942;28;20390;-66
2022/01/29 09:08:27;;;;;;;17.58;12.55;;;3.70;99.90;;;;;;4988125;28;20052;-65
2022/01/29 09:10:57;;;;;;;19.50;12.35;;;3.70;99.90;;;;;;4988986;28;20397;-65
2022/01/29 09:13:24;;;;;;;18.08;12.90;;;3.70;99.90;;;;;;4986639;28;20034;-65
2022/01/29 09:15:49;;;;;;;17.63;12.40;;;3.80;99.90;;;;;;4986512;28;20714;-64
2022/01/29 09:18:15;;;;;;;27.50;14.75;;;3.70;99.90;;;;;;4985107;28;20066;-66
2022/01/29 09:20:41;;;;;;;18.60;12.27;;;3.80;99.90;;;;;;4989665;28;20121;-65
2022/01/29 09:23:08;;;;;;;16.65;12.00;;;3.80;99.90;;;;;;4986150;28;20046;-65
2022/01/29 09:25:36;;;;;;;16.48;11.30;;;3.80;99.90;;;;;;4986989;28;20611;-64
2022/01/29 09:28:03;;;;;;;17.70;12.00;;;3.80;99.90;;;;;;4986884;28;20031;-65
2022/01/29 09:30:29;;;;;;;20.60;13.77;;;3.80;99.90;;;;;;4983709;28;20018;-65
2022/01/29 09:32:55;;;;;;;19.52;10.38;;;3.80;99.90;;;;;;4988028;28;20029;-67
2022/01/29 09:35:21;;;;;;;17.92;11.50;;;3.80;99.90;;;;;;4986830;28;20110;-65
2022/01/29 09:37:46;;;;;;;17.75;10.75;;;3.80;99.90;;;;;;4990918;28;20030;-64
2022/01/29 09:40:13;;;;;;;23.98;10.40;;;3.80;99.90;;;;;;4985602;28;20070;-64
2022/01/29 09:42:39;;;;;;;14.60;10.45;;;3.90;99.90;;;;;;4983642;28;20032;-65
2022/01/29 09:45:08;;;;;;;12.95;9.88;;;3.90;99.90;;;;;;4986729;28;20026;-66
2022/01/29 09:47:35;;;;;;;15.88;10.52;;;4.00;99.90;;;;;;4985415;28;20401;-66
2022/01/29 09:50:01;;;;;;;21.00;10.77;;;4.00;99.90;;;;;;4986108;28;20657;-65
2022/01/29 09:52:26;;;;;;;14.55;9.93;;;4.00;99.90;;;;;;4986035;28;20105;-65
2022/01/29 09:54:52;;;;;;;13.75;8.85;;;4.00;99.90;;;;;;4983387;28;20488;-65
2022/01/29 09:57:18;;;;;;;11.18;8.35;;;4.10;99.90;;;;;;4985634;28;20022;-65
2022/01/29 09:59:43;;;;;;;10.63;8.68;;;4.10;99.90;;;;;;4986599;28;20392;-65
2022/01/29 10:02:17;;;;;;;10.95;8.70;;;4.10;99.90;;;;;;4987112;28;20139;-65
2022/01/29 10:04:50;;;;;;;11.25;9.27;;;4.00;99.90;;;;;;4984131;28;20487;-65
2022/01/29 10:07:28;;;;;;;11.05;8.18;;;4.10;99.90;;;;;;4985649;28;20030;-66
2022/01/29 10:09:56;;;;;;;12.43;8.20;;;4.10;99.90;;;;;;4987136;28;20532;-65
2022/01/29 10:12:32;;;;;;;11.68;7.90;;;4.10;99.90;;;;;;4988396;28;20500;-65
2022/01/29 10:15:04;;;;;;;13.43;7.53;;;4.20;99.90;;;;;;4985579;28;20029;-66
2022/01/29 10:17:49;;;;;;;8.10;6.50;;;4.30;99.90;;;;;;4986866;28;20027;-65
2022/01/29 10:20:24;;;;;;;11.02;7.53;;;4.30;99.90;;;;;;4986888;28;20429;-65
2022/01/29 10:23:07;;;;;;;8.85;6.90;;;4.30;99.90;;;;;;4988104;28;20023;-65
2022/01/29 10:25:37;;;;;;;8.65;7.22;;;4.30;99.90;;;;;;4986890;28;20027;-66
2022/01/29 10:28:10;;;;;;;7.88;6.55;;;4.40;99.90;;;;;;4985410;28;20137;-65
2022/01/29 10:30:53;;;;;;;8.55;6.47;;;4.40;99.90;;;;;;4986624;28;20049;-65
2022/01/29 10:33:32;;;;;;;8.35;7.45;;;4.40;99.90;;;;;;4983887;28;20066;-68
2022/01/29 10:36:04;;;;;;;7.53;6.57;;;4.40;99.90;;;;;;4984977;28;20042;-66
2022/01/29 10:38:51;;;;;;;8.82;6.75;;;4.40;99.90;;;;;;4986660;28;20039;-67
2022/01/29 10:41:28;;;;;;;9.73;6.13;;;4.40;99.90;;;;;;4988158;28;20026;-66
2022/01/29 10:44:09;;;;;;;7.93;6.85;;;4.30;99.90;;;;;;4984534;28;20063;-69
2022/01/29 10:46:35;;;;;;;7.03;6.10;;;4.30;99.90;;;;;;4982277;28;20026;-66
2022/01/29 10:49:01;;;;;;;6.43;4.80;;;4.40;99.90;;;;;;4987151;28;20505;-65
2022/01/29 10:51:27;;;;;;;5.75;4.72;;;4.40;99.90;;;;;;4986472;28;20485;-66
2022/01/29 10:53:53;;;;;;;7.47;5.10;;;4.40;99.90;;;;;;4984069;28;20030;-66
2022/01/29 10:56:20;;;;;;;8.23;5.70;;;4.50;99.90;;;;;;4987662;28;20584;-65
2022/01/29 10:58:52;;;;;;;8.57;5.40;;;4.60;99.90;;;;;;4979832;28;20405;-65
2022/01/29 11:01:24;;;;;;;6.30;5.18;;;4.70;99.90;;;;;;4982354;28;20018;-69
2022/01/29 11:03:55;;;;;;;;;;;4.70;99.90;;;;;;4987167;28;20073;-65
2022/01/29 11:06:28;;;;;;;7.80;7.03;;;4.80;99.90;;;;;;4984106;28;20055;-65
2022/01/29 11:08:54;;;;;;;6.78;5.45;;;4.80;99.90;;;;;;4987822;28;20397;-65
2022/01/29 11:11:21;;;;;;;5.68;4.55;;;4.80;99.90;;;;;;4986727;28;20038;-65
2022/01/29 11:13:47;;;;;;;6.32;4.28;;;4.80;99.90;;;;;;4986912;28;20039;-65
2022/01/29 11:16:13;;;;;;;5.60;5.07;;;4.90;99.90;;;;;;4985086;28;20038;-65
2022/01/29 11:18:39;;;;;;;4.38;3.97;;;4.90;99.90;;;;;;4990038;28;20427;-64
2022/01/29 11:21:05;;;;;;;6.18;4.40;;;5.00;99.90;;;;;;4985638;28;20062;-66
2022/01/29 11:23:31;;;;;;;5.38;4.47;;;5.10;99.90;;;;;;4986962;28;20041;-67
2022/01/29 11:26:00;;;;;;;7.30;4.75;;;5.20;99.90;;;;;;4984094;28;20046;-68
2022/01/29 11:28:28;;;;;;;4.60;3.50;;;5.20;99.90;;;;;;4991478;28;20062;-68
2022/01/29 11:31:15;;;;;;;5.90;3.88;;;5.30;99.90;;;;;;4990793;28;20030;-66
2022/01/29 11:33:58;;;;;;;4.40;4.00;;;5.40;99.90;;;;;;4984212;28;20023;-66
2022/01/29 11:36:49;;;;;;;4.53;3.88;;;5.40;99.90;;;;;;4991502;28;20022;-68
2022/01/29 11:39:26;;;;;;;5.00;4.50;;;5.40;99.90;;;;;;4985083;28;20042;-66
2022/01/29 11:42:10;;;;;;;3.42;3.13;;;5.40;99.90;;;;;;4989030;28;20045;-65
2022/01/29 11:44:36;;;;;;;3.75;3.05;;;5.40;99.90;;;;;;4987669;28;20022;-65
2022/01/29 11:47:24;;;;;;;4.93;3.83;;;5.40;99.90;;;;;;5006589;28;20053;-65
2022/01/29 11:50:10;;;;;;;4.85;4.35;;;5.40;99.90;;;;;;4984727;28;20030;-65
2022/01/29 11:52:56;;;;;;;6.95;6.25;;;5.40;99.90;;;;;;4989964;28;20035;-65
2022/01/29 11:55:39;;;;;;;4.40;3.90;;;5.40;99.90;;;;;;4989049;28;20058;-66
2022/01/29 11:58:16;;;;;;;4.38;3.97;;;5.40;99.90;;;;;;4987460;28;20030;-65
2022/01/29 12:00:51;;;;;;;4.03;3.42;;;5.30;99.90;;;;;;4989716;28;20069;-65
2022/01/29 12:03:35;;;;;;;4.63;3.55;;;5.30;99.90;;;;;;4986877;28;20028;-66
2022/01/29 12:09:02;;;;;;;5.60;3.97;;;5.30;99.90;;;;;;4988024;28;20042;-65
2022/01/29 12:11:28;;;;;;;5.80;3.92;;;5.30;99.90;;;;;;4987347;28;20034;-65
2022/01/29 12:14:26;;;;;;;5.50;4.15;;;5.30;99.90;;;;;;4989073;28;20030;-65
2022/01/29 12:16:54;;;;;;;5.28;4.50;;;5.20;99.90;;;;;;4982317;28;20031;-66
2022/01/29 12:19:43;;;;;;;5.35;4.60;;;5.20;99.90;;;;;;4987338;28;20034;-66
2022/01/29 12:22:16;;;;;;;5.07;4.57;;;5.20;99.90;;;;;;4987988;28;20377;-65
2022/01/29 12:24:49;;;;;;;5.35;4.82;;;5.10;99.90;;;;;;4987259;28;20029;-65
2022/01/29 12:27:14;;;;;;;5.57;4.53;;;5.10;99.90;;;;;;4986927;28;20025;-66
2022/01/29 12:29:41;;;;;;;6.45;5.25;;;5.10;99.90;;;;;;4987736;28;20133;-65
2022/01/29 12:32:08;;;;;;;4.88;4.40;;;5.00;99.90;;;;;;4986235;28;20565;-64
2022/01/29 12:34:33;;;;;;;4.57;4.18;;;4.90;99.90;;;;;;4987095;28;20413;-65
2022/01/29 12:37:13;;;;;;;5.65;4.75;;;4.90;99.90;;;;;;4989158;28;20081;-65
2022/01/29 12:39:41;;;;;;;6.75;4.95;;;4.90;99.90;;;;;;4990150;28;20026;-66
2022/01/29 12:44:51;;;;;;;6.03;5.43;;;4.90;99.90;;;;;;4981473;28;20412;-66
2022/01/29 12:47:32;;;;;;;7.80;5.10;;;4.90;99.90;;;;;;4986380;28;20413;-66
2022/01/29 12:49:57;;;;;;;7.50;6.07;;;4.90;99.90;;;;;;4988260;28;20105;-67
2022/01/29 12:52:25;;;;;;;5.68;5.15;;;4.90;99.90;;;;;;4987618;28;20076;-64
2022/01/29 12:54:59;;;;;;;6.35;5.13;;;4.80;99.90;;;;;;4988700;28;20045;-65
2022/01/29 12:57:26;;;;;;;5.53;4.93;;;4.90;99.90;;;;;;4986721;28;20478;-65
2022/01/29 12:59:52;;;;;;;6.32;4.72;;;4.90;99.90;;;;;;4985807;28;20034;-66
2022/01/29 13:02:21;;;;;;;5.70;4.50;;;5.00;99.90;;;;;;4989331;28;20036;-65